sensor_id;sensor_type;location;lat;lon;timestamp;P1;durP1;ratioP1;P2;durP2;ratioP2
14092;SDS011;7123;49.468;10.992;2023-02-22T00:00:25;11.63;;;8.87;;
14092;SDS011;7123;49.468;10.992;2023-02-22T00:03:20;10.73;;;8.77;;
14092;SDS011;7123;49.468;10.992;2023-02-22T00:06:00;11.73;;;8.33;;
14092;SDS011;7123;49.468;10.992;2023-02-22T00:08:34;9.17;;;7.37;;
14092;SDS011;7123;49.468;10.992;2023-02-22T00:11:03;9.50;;;8.00;;
14092;SDS011;7123;49.468;10.992;2023-02-22T00:13:34;10.30;;;8.00;;
14092;SDS011;7123;49.468;10.992;2023-02-22T00:16:01;8.00;;;7.20;;
14092;SDS011;7123;49.468;10.992;2023-02-22T00:18:29;10.17;;;7.60;;
14092;SDS011;7123;49.468;10.992;2023-02-22T00:20:56;8.07;;;7.27;;
14092;SDS011;7123;49.468;10.992;2023-02-22T00:23:27;10.83;;;8.17;;
14092;SDS011;7123;49.468;10.992;2023-02-22T00:25:56;9.17;;;8.20;;
14092;SDS011;7123;49.468;10.992;2023-02-22T00:28:25;11.57;;;8.33;;
14092;SDS011;7123;49.468;10.992;2023-02-22T00:30:52;11.13;;;8.57;;
14092;SDS011;7123;49.468;10.992;2023-02-22T00:33:19;12.67;;;8.63;;
14092;SDS011;7123;49.468;10.992;2023-02-22T00:35:46;12.67;;;7.77;;
14092;SDS011;7123;49.468;10.992;2023-02-22T00:38:15;10.00;;;8.50;;
14092;SDS011;7123;49.468;10.992;2023-02-22T00:40:44;10.27;;;8.40;;
14092;SDS011;7123;49.468;10.992;2023-02-22T00:43:12;11.43;;;8.27;;
14092;SDS011;7123;49.468;10.992;2023-02-22T00:45:39;12.40;;;9.20;;
14092;SDS011;7123;49.468;10.992;2023-02-22T00:48:06;12.90;;;9.07;;
14092;SDS011;7123;49.468;10.992;2023-02-22T00:50:34;12.57;;;8.93;;
14092;SDS011;7123;49.468;10.992;2023-02-22T00:53:02;11.23;;;9.10;;
14092;SDS011;7123;49.468;10.992;2023-02-22T00:55:31;11.00;;;8.63;;
14092;SDS011;7123;49.468;10.992;2023-02-22T00:57:58;11.57;;;8.67;;
14092;SDS011;7123;49.468;10.992;2023-02-22T01:00:28;11.13;;;8.40;;
14092;SDS011;7123;49.468;10.992;2023-02-22T01:03:05;13.20;;;8.53;;
14092;SDS011;7123;49.468;10.992;2023-02-22T01:05:33;12.97;;;8.23;;
14092;SDS011;7123;49.468;10.992;2023-02-22T01:08:02;10.87;;;8.13;;
14092;SDS011;7123;49.468;10.992;2023-02-22T01:10:31;9.77;;;7.87;;
14092;SDS011;7123;49.468;10.992;2023-02-22T01:12:59;9.50;;;7.57;;
14092;SDS011;7123;49.468;10.992;2023-02-22T01:15:27;10.77;;;7.43;;
14092;SDS011;7123;49.468;10.992;2023-02-22T01:17:56;10.90;;;8.60;;
14092;SDS011;7123;49.468;10.992;2023-02-22T01:20:23;15.90;;;8.27;;
14092;SDS011;7123;49.468;10.992;2023-02-22T01:22:52;8.40;;;7.60;;
14092;SDS011;7123;49.468;10.992;2023-02-22T01:25:21;12.57;;;7.70;;
14092;SDS011;7123;49.468;10.992;2023-02-22T01:27:52;10.20;;;7.83;;
14092;SDS011;7123;49.468;10.992;2023-02-22T01:30:21;11.23;;;7.77;;
14092;SDS011;7123;49.468;10.992;2023-02-22T01:32:49;8.83;;;7.83;;
14092;SDS011;7123;49.468;10.992;2023-02-22T01:35:19;9.80;;;7.57;;
14092;SDS011;7123;49.468;10.992;2023-02-22T01:37:48;9.17;;;7.63;;
14092;SDS011;7123;49.468;10.992;2023-02-22T01:40:20;10.70;;;8.00;;
14092;SDS011;7123;49.468;10.992;2023-02-22T01:42:54;10.57;;;7.70;;
14092;SDS011;7123;49.468;10.992;2023-02-22T01:47:56;8.63;;;7.27;;
14092;SDS011;7123;49.468;10.992;2023-02-22T01:50:36;10.30;;;7.63;;
14092;SDS011;7123;49.468;10.992;2023-02-22T01:53:08;8.67;;;7.20;;
14092;SDS011;7123;49.468;10.992;2023-02-22T01:55:36;8.43;;;6.70;;
14092;SDS011;7123;49.468;10.992;2023-02-22T01:58:04;8.10;;;7.00;;
14092;SDS011;7123;49.468;10.992;2023-02-22T02:00:32;8.33;;;6.97;;
14092;SDS011;7123;49.468;10.992;2023-02-22T02:03:01;8.50;;;7.23;;
14092;SDS011;7123;49.468;10.992;2023-02-22T02:05:34;9.20;;;7.33;;
14092;SDS011;7123;49.468;10.992;2023-02-22T02:08:15;7.97;;;7.17;;
14092;SDS011;7123;49.468;10.992;2023-02-22T02:11:02;8.03;;;7.20;;
14092;SDS011;7123;49.468;10.992;2023-02-22T02:13:34;7.67;;;6.90;;
14092;SDS011;7123;49.468;10.992;2023-02-22T02:16:01;7.87;;;6.80;;
14092;SDS011;7123;49.468;10.992;2023-02-22T02:18:28;9.67;;;6.97;;
14092;SDS011;7123;49.468;10.992;2023-02-22T02:35:03;8.47;;;6.67;;
14092;SDS011;7123;49.468;10.992;2023-02-22T02:40:41;8.20;;;6.97;;
14092;SDS011;7123;49.468;10.992;2023-02-22T02:43:32;11.10;;;7.70;;
14092;SDS011;7123;49.468;10.992;2023-02-22T02:46:13;9.93;;;7.23;;
14092;SDS011;7123;49.468;10.992;2023-02-22T02:48:48;8.00;;;6.97;;
14092;SDS011;7123;49.468;10.992;2023-02-22T02:51:35;8.43;;;6.87;;
14092;SDS011;7123;49.468;10.992;2023-02-22T02:54:09;9.47;;;7.37;;
14092;SDS011;7123;49.468;10.992;2023-02-22T02:56:38;8.00;;;7.20;;
14092;SDS011;7123;49.468;10.992;2023-02-22T03:18:57;9.40;;;7.13;;
14092;SDS011;7123;49.468;10.992;2023-02-22T03:21:54;8.17;;;6.93;;
14092;SDS011;7123;49.468;10.992;2023-02-22T03:24:31;8.70;;;7.23;;
14092;SDS011;7123;49.468;10.992;2023-02-22T03:27:04;10.07;;;7.10;;
14092;SDS011;7123;49.468;10.992;2023-02-22T03:29:37;10.70;;;6.97;;
14092;SDS011;7123;49.468;10.992;2023-02-22T03:32:10;7.83;;;7.03;;
14092;SDS011;7123;49.468;10.992;2023-02-22T03:34:45;8.67;;;6.97;;
14092;SDS011;7123;49.468;10.992;2023-02-22T03:37:23;8.53;;;6.43;;
14092;SDS011;7123;49.468;10.992;2023-02-22T03:39:54;7.03;;;6.33;;
14092;SDS011;7123;49.468;10.992;2023-02-22T03:42:24;8.97;;;6.80;;
14092;SDS011;7123;49.468;10.992;2023-02-22T03:44:55;8.90;;;6.50;;
14092;SDS011;7123;49.468;10.992;2023-02-22T03:47:29;7.57;;;6.43;;
14092;SDS011;7123;49.468;10.992;2023-02-22T03:50:02;7.23;;;6.37;;
14092;SDS011;7123;49.468;10.992;2023-02-22T03:52:41;7.30;;;6.50;;
14092;SDS011;7123;49.468;10.992;2023-02-22T03:55:10;6.60;;;6.00;;
14092;SDS011;7123;49.468;10.992;2023-02-22T03:57:38;8.33;;;6.70;;
14092;SDS011;7123;49.468;10.992;2023-02-22T04:00:09;6.70;;;6.00;;
14092;SDS011;7123;49.468;10.992;2023-02-22T04:02:40;8.53;;;6.70;;
14092;SDS011;7123;49.468;10.992;2023-02-22T04:05:07;7.13;;;6.43;;
14092;SDS011;7123;49.468;10.992;2023-02-22T04:07:34;7.13;;;6.20;;
14092;SDS011;7123;49.468;10.992;2023-02-22T04:10:01;8.77;;;6.20;;
14092;SDS011;7123;49.468;10.992;2023-02-22T04:12:28;10.60;;;6.80;;
14092;SDS011;7123;49.468;10.992;2023-02-22T04:14:55;7.70;;;6.10;;
14092;SDS011;7123;49.468;10.992;2023-02-22T04:17:21;6.43;;;5.80;;
14092;SDS011;7123;49.468;10.992;2023-02-22T04:19:48;7.27;;;6.23;;
14092;SDS011;7123;49.468;10.992;2023-02-22T04:22:15;8.33;;;5.77;;
14092;SDS011;7123;49.468;10.992;2023-02-22T04:24:41;7.13;;;6.20;;
14092;SDS011;7123;49.468;10.992;2023-02-22T04:27:08;8.27;;;6.07;;
14092;SDS011;7123;49.468;10.992;2023-02-22T04:29:35;8.60;;;6.07;;
14092;SDS011;7123;49.468;10.992;2023-02-22T04:32:01;8.13;;;6.40;;
14092;SDS011;7123;49.468;10.992;2023-02-22T04:34:28;7.00;;;5.97;;
14092;SDS011;7123;49.468;10.992;2023-02-22T04:36:55;7.43;;;5.73;;
14092;SDS011;7123;49.468;10.992;2023-02-22T04:39:22;7.87;;;6.23;;
14092;SDS011;7123;49.468;10.992;2023-02-22T04:41:48;7.60;;;6.13;;
14092;SDS011;7123;49.468;10.992;2023-02-22T04:44:15;6.37;;;5.70;;
14092;SDS011;7123;49.468;10.992;2023-02-22T04:46:42;7.47;;;5.77;;
14092;SDS011;7123;49.468;10.992;2023-02-22T04:49:09;8.43;;;5.83;;
14092;SDS011;7123;49.468;10.992;2023-02-22T04:51:35;7.20;;;6.17;;
14092;SDS011;7123;49.468;10.992;2023-02-22T04:54:02;8.03;;;6.00;;
14092;SDS011;7123;49.468;10.992;2023-02-22T04:56:29;6.33;;;5.70;;
14092;SDS011;7123;49.468;10.992;2023-02-22T04:58:55;7.27;;;6.20;;
14092;SDS011;7123;49.468;10.992;2023-02-22T05:01:22;8.00;;;6.33;;
14092;SDS011;7123;49.468;10.992;2023-02-22T05:03:49;7.90;;;6.30;;
14092;SDS011;7123;49.468;10.992;2023-02-22T05:06:16;7.33;;;6.47;;
14092;SDS011;7123;49.468;10.992;2023-02-22T05:08:43;7.73;;;6.10;;
14092;SDS011;7123;49.468;10.992;2023-02-22T05:11:10;8.53;;;6.30;;
14092;SDS011;7123;49.468;10.992;2023-02-22T05:13:36;8.10;;;5.90;;
14092;SDS011;7123;49.468;10.992;2023-02-22T05:16:03;8.13;;;6.03;;
14092;SDS011;7123;49.468;10.992;2023-02-22T05:18:30;7.00;;;6.30;;
14092;SDS011;7123;49.468;10.992;2023-02-22T05:20:57;8.57;;;6.47;;
14092;SDS011;7123;49.468;10.992;2023-02-22T05:23:24;6.77;;;6.00;;
14092;SDS011;7123;49.468;10.992;2023-02-22T05:25:50;9.30;;;6.60;;
14092;SDS011;7123;49.468;10.992;2023-02-22T05:28:17;9.97;;;6.47;;
14092;SDS011;7123;49.468;10.992;2023-02-22T05:30:44;7.57;;;6.40;;
14092;SDS011;7123;49.468;10.992;2023-02-22T05:33:11;7.07;;;6.30;;
14092;SDS011;7123;49.468;10.992;2023-02-22T05:35:38;7.83;;;6.40;;
14092;SDS011;7123;49.468;10.992;2023-02-22T05:38:05;8.23;;;6.60;;
14092;SDS011;7123;49.468;10.992;2023-02-22T05:40:32;7.60;;;6.47;;
14092;SDS011;7123;49.468;10.992;2023-02-22T05:43:01;9.03;;;6.90;;
14092;SDS011;7123;49.468;10.992;2023-02-22T05:45:28;11.90;;;6.60;;
14092;SDS011;7123;49.468;10.992;2023-02-22T05:47:55;7.27;;;6.27;;
14092;SDS011;7123;49.468;10.992;2023-02-22T05:50:22;8.10;;;6.63;;
14092;SDS011;7123;49.468;10.992;2023-02-22T05:52:49;7.60;;;6.73;;
14092;SDS011;7123;49.468;10.992;2023-02-22T05:55:17;7.77;;;6.30;;
14092;SDS011;7123;49.468;10.992;2023-02-22T05:57:45;9.83;;;7.17;;
14092;SDS011;7123;49.468;10.992;2023-02-22T06:00:16;6.97;;;6.10;;
14092;SDS011;7123;49.468;10.992;2023-02-22T06:02:45;8.33;;;6.13;;
14092;SDS011;7123;49.468;10.992;2023-02-22T06:05:11;7.70;;;6.03;;
14092;SDS011;7123;49.468;10.992;2023-02-22T06:07:39;7.00;;;5.73;;
14092;SDS011;7123;49.468;10.992;2023-02-22T06:10:05;7.40;;;6.47;;
14092;SDS011;7123;49.468;10.992;2023-02-22T06:12:32;9.20;;;6.90;;
14092;SDS011;7123;49.468;10.992;2023-02-22T06:14:59;9.40;;;6.10;;
14092;SDS011;7123;49.468;10.992;2023-02-22T06:17:25;9.10;;;6.30;;
14092;SDS011;7123;49.468;10.992;2023-02-22T06:19:52;10.17;;;6.30;;
14092;SDS011;7123;49.468;10.992;2023-02-22T06:22:19;8.67;;;6.27;;
14092;SDS011;7123;49.468;10.992;2023-02-22T06:24:45;9.10;;;6.53;;
14092;SDS011;7123;49.468;10.992;2023-02-22T06:27:12;8.47;;;6.50;;
14092;SDS011;7123;49.468;10.992;2023-02-22T06:29:39;6.80;;;6.20;;
14092;SDS011;7123;49.468;10.992;2023-02-22T06:32:10;7.67;;;6.83;;
14092;SDS011;7123;49.468;10.992;2023-02-22T06:34:37;8.10;;;6.70;;
14092;SDS011;7123;49.468;10.992;2023-02-22T06:37:06;8.77;;;6.63;;
14092;SDS011;7123;49.468;10.992;2023-02-22T06:39:33;12.77;;;7.40;;
14092;SDS011;7123;49.468;10.992;2023-02-22T06:42:00;6.80;;;6.10;;
14092;SDS011;7123;49.468;10.992;2023-02-22T06:44:29;10.47;;;7.03;;
14092;SDS011;7123;49.468;10.992;2023-02-22T06:46:56;8.67;;;7.13;;
14092;SDS011;7123;49.468;10.992;2023-02-22T06:49:25;9.10;;;7.50;;
14092;SDS011;7123;49.468;10.992;2023-02-22T06:51:53;8.87;;;7.07;;
14092;SDS011;7123;49.468;10.992;2023-02-22T06:54:20;9.50;;;7.03;;
14092;SDS011;7123;49.468;10.992;2023-02-22T06:56:48;8.33;;;6.50;;
14092;SDS011;7123;49.468;10.992;2023-02-22T06:59:15;8.60;;;6.67;;
14092;SDS011;7123;49.468;10.992;2023-02-22T07:01:42;11.17;;;7.10;;
14092;SDS011;7123;49.468;10.992;2023-02-22T07:04:09;8.83;;;7.03;;
14092;SDS011;7123;49.468;10.992;2023-02-22T07:06:36;8.93;;;6.93;;
14092;SDS011;7123;49.468;10.992;2023-02-22T07:09:03;11.40;;;6.70;;
14092;SDS011;7123;49.468;10.992;2023-02-22T07:11:29;9.17;;;6.50;;
14092;SDS011;7123;49.468;10.992;2023-02-22T07:13:56;8.07;;;6.80;;
14092;SDS011;7123;49.468;10.992;2023-02-22T07:16:23;13.77;;;7.10;;
14092;SDS011;7123;49.468;10.992;2023-02-22T07:18:50;8.30;;;6.67;;
14092;SDS011;7123;49.468;10.992;2023-02-22T07:21:18;8.33;;;6.60;;
14092;SDS011;7123;49.468;10.992;2023-02-22T07:23:54;8.13;;;5.93;;
14092;SDS011;7123;49.468;10.992;2023-02-22T07:26:24;8.83;;;6.07;;
14092;SDS011;7123;49.468;10.992;2023-02-22T07:28:52;8.13;;;5.93;;
14092;SDS011;7123;49.468;10.992;2023-02-22T07:31:18;8.53;;;6.10;;
14092;SDS011;7123;49.468;10.992;2023-02-22T07:33:46;9.53;;;6.63;;
14092;SDS011;7123;49.468;10.992;2023-02-22T07:36:14;7.73;;;6.53;;
14092;SDS011;7123;49.468;10.992;2023-02-22T07:38:45;7.60;;;6.80;;
14092;SDS011;7123;49.468;10.992;2023-02-22T07:41:12;9.73;;;7.30;;
14092;SDS011;7123;49.468;10.992;2023-02-22T07:43:39;12.27;;;6.70;;
14092;SDS011;7123;49.468;10.992;2023-02-22T07:46:05;9.77;;;7.13;;
14092;SDS011;7123;49.468;10.992;2023-02-22T07:48:32;11.57;;;6.80;;
14092;SDS011;7123;49.468;10.992;2023-02-22T07:50:59;12.93;;;7.20;;
14092;SDS011;7123;49.468;10.992;2023-02-22T07:53:27;9.43;;;6.63;;
14092;SDS011;7123;49.468;10.992;2023-02-22T07:56:02;9.30;;;7.07;;
14092;SDS011;7123;49.468;10.992;2023-02-22T07:58:31;12.57;;;7.13;;
14092;SDS011;7123;49.468;10.992;2023-02-22T08:00:58;12.03;;;7.23;;
14092;SDS011;7123;49.468;10.992;2023-02-22T08:03:29;10.40;;;6.90;;
14092;SDS011;7123;49.468;10.992;2023-02-22T08:05:59;11.63;;;6.60;;
14092;SDS011;7123;49.468;10.992;2023-02-22T08:08:28;11.67;;;7.20;;
14092;SDS011;7123;49.468;10.992;2023-02-22T08:10:54;15.50;;;7.50;;
14092;SDS011;7123;49.468;10.992;2023-02-22T08:13:21;11.97;;;7.37;;
14092;SDS011;7123;49.468;10.992;2023-02-22T08:15:49;12.00;;;7.80;;
14092;SDS011;7123;49.468;10.992;2023-02-22T08:18:18;12.70;;;7.60;;
14092;SDS011;7123;49.468;10.992;2023-02-22T08:20:47;10.83;;;8.10;;
14092;SDS011;7123;49.468;10.992;2023-02-22T08:23:15;13.70;;;7.97;;
14092;SDS011;7123;49.468;10.992;2023-02-22T08:25:44;11.37;;;7.90;;
14092;SDS011;7123;49.468;10.992;2023-02-22T08:28:11;11.83;;;8.00;;
14092;SDS011;7123;49.468;10.992;2023-02-22T08:30:40;12.33;;;8.20;;
14092;SDS011;7123;49.468;10.992;2023-02-22T08:33:11;12.80;;;8.27;;
14092;SDS011;7123;49.468;10.992;2023-02-22T08:35:41;15.50;;;9.23;;
14092;SDS011;7123;49.468;10.992;2023-02-22T08:38:14;15.67;;;9.00;;
14092;SDS011;7123;49.468;10.992;2023-02-22T08:40:42;13.87;;;8.80;;
14092;SDS011;7123;49.468;10.992;2023-02-22T08:43:09;13.23;;;8.70;;
14092;SDS011;7123;49.468;10.992;2023-02-22T08:45:38;17.80;;;9.53;;
14092;SDS011;7123;49.468;10.992;2023-02-22T08:48:05;15.50;;;9.30;;
14092;SDS011;7123;49.468;10.992;2023-02-22T08:50:32;18.07;;;10.63;;
14092;SDS011;7123;49.468;10.992;2023-02-22T08:53:01;20.83;;;10.70;;
14092;SDS011;7123;49.468;10.992;2023-02-22T08:55:33;17.20;;;9.43;;
14092;SDS011;7123;49.468;10.992;2023-02-22T08:58:01;17.80;;;10.60;;
14092;SDS011;7123;49.468;10.992;2023-02-22T09:00:30;21.10;;;10.97;;
14092;SDS011;7123;49.468;10.992;2023-02-22T09:03:01;19.13;;;9.53;;
14092;SDS011;7123;49.468;10.992;2023-02-22T09:05:29;13.87;;;9.63;;
14092;SDS011;7123;49.468;10.992;2023-02-22T09:07:56;15.13;;;10.00;;
14092;SDS011;7123;49.468;10.992;2023-02-22T09:10:24;15.33;;;9.20;;
14092;SDS011;7123;49.468;10.992;2023-02-22T09:12:53;20.63;;;9.20;;
14092;SDS011;7123;49.468;10.992;2023-02-22T09:15:21;13.47;;;8.67;;
14092;SDS011;7123;49.468;10.992;2023-02-22T09:17:49;17.50;;;10.23;;
14092;SDS011;7123;49.468;10.992;2023-02-22T09:20:17;15.90;;;9.20;;
14092;SDS011;7123;49.468;10.992;2023-02-22T09:22:45;14.00;;;9.60;;
14092;SDS011;7123;49.468;10.992;2023-02-22T09:25:13;18.57;;;9.80;;
14092;SDS011;7123;49.468;10.992;2023-02-22T09:27:42;18.13;;;9.73;;
14092;SDS011;7123;49.468;10.992;2023-02-22T09:30:22;15.60;;;8.90;;
14092;SDS011;7123;49.468;10.992;2023-02-22T09:32:52;18.77;;;8.70;;
14092;SDS011;7123;49.468;10.992;2023-02-22T09:35:21;10.37;;;8.53;;
14092;SDS011;7123;49.468;10.992;2023-02-22T09:37:56;15.97;;;9.57;;
14092;SDS011;7123;49.468;10.992;2023-02-22T09:40:31;12.13;;;8.83;;
14092;SDS011;7123;49.468;10.992;2023-02-22T09:45:55;15.20;;;8.47;;
14092;SDS011;7123;49.468;10.992;2023-02-22T09:48:23;11.57;;;8.30;;
14092;SDS011;7123;49.468;10.992;2023-02-22T09:50:51;12.83;;;8.47;;
14092;SDS011;7123;49.468;10.992;2023-02-22T09:53:25;12.37;;;8.67;;
14092;SDS011;7123;49.468;10.992;2023-02-22T09:56:05;13.67;;;8.60;;
14092;SDS011;7123;49.468;10.992;2023-02-22T09:58:51;12.83;;;7.50;;
14092;SDS011;7123;49.468;10.992;2023-02-22T10:04:07;8.63;;;7.73;;
14092;SDS011;7123;49.468;10.992;2023-02-22T10:09:46;9.17;;;7.40;;
14092;SDS011;7123;49.468;10.992;2023-02-22T10:17:32;10.97;;;7.57;;
14092;SDS011;7123;49.468;10.992;2023-02-22T10:22:58;13.07;;;7.70;;
14092;SDS011;7123;49.468;10.992;2023-02-22T10:25:30;9.90;;;7.37;;
14092;SDS011;7123;49.468;10.992;2023-02-22T10:28:05;10.60;;;7.10;;
14092;SDS011;7123;49.468;10.992;2023-02-22T10:30:42;8.27;;;6.50;;
14092;SDS011;7123;49.468;10.992;2023-02-22T10:33:20;7.70;;;6.10;;
14092;SDS011;7123;49.468;10.992;2023-02-22T10:35:54;11.63;;;6.87;;
14092;SDS011;7123;49.468;10.992;2023-02-22T10:38:26;9.27;;;6.73;;
14092;SDS011;7123;49.468;10.992;2023-02-22T10:43:36;9.90;;;6.97;;
14092;SDS011;7123;49.468;10.992;2023-02-22T10:46:06;8.37;;;6.43;;
14092;SDS011;7123;49.468;10.992;2023-02-22T10:48:37;8.50;;;6.90;;
14092;SDS011;7123;49.468;10.992;2023-02-22T10:51:07;12.90;;;7.80;;
14092;SDS011;7123;49.468;10.992;2023-02-22T10:53:35;10.27;;;7.53;;
14092;SDS011;7123;49.468;10.992;2023-02-22T10:56:17;9.80;;;6.93;;
14092;SDS011;7123;49.468;10.992;2023-02-22T11:01:19;9.03;;;7.63;;
14092;SDS011;7123;49.468;10.992;2023-02-22T11:03:56;7.33;;;6.33;;
14092;SDS011;7123;49.468;10.992;2023-02-22T11:06:24;8.37;;;6.93;;
14092;SDS011;7123;49.468;10.992;2023-02-22T11:08:50;8.50;;;5.90;;
14092;SDS011;7123;49.468;10.992;2023-02-22T11:11:31;10.03;;;7.77;;
14092;SDS011;7123;49.468;10.992;2023-02-22T11:13:59;7.00;;;5.93;;
14092;SDS011;7123;49.468;10.992;2023-02-22T11:19:17;8.87;;;6.67;;
14092;SDS011;7123;49.468;10.992;2023-02-22T11:21:48;7.67;;;5.87;;
14092;SDS011;7123;49.468;10.992;2023-02-22T11:24:18;6.23;;;5.57;;
14092;SDS011;7123;49.468;10.992;2023-02-22T11:26:50;7.47;;;5.33;;
14092;SDS011;7123;49.468;10.992;2023-02-22T11:29:31;9.87;;;6.47;;
14092;SDS011;7123;49.468;10.992;2023-02-22T11:32:15;8.33;;;5.20;;
14092;SDS011;7123;49.468;10.992;2023-02-22T11:34:47;6.73;;;6.03;;
14092;SDS011;7123;49.468;10.992;2023-02-22T11:37:33;11.37;;;6.13;;
14092;SDS011;7123;49.468;10.992;2023-02-22T11:40:15;8.57;;;7.13;;
14092;SDS011;7123;49.468;10.992;2023-02-22T11:42:45;6.07;;;5.10;;
14092;SDS011;7123;49.468;10.992;2023-02-22T11:45:14;7.23;;;6.47;;
14092;SDS011;7123;49.468;10.992;2023-02-22T11:47:47;8.23;;;6.13;;
14092;SDS011;7123;49.468;10.992;2023-02-22T11:50:42;6.33;;;5.00;;
14092;SDS011;7123;49.468;10.992;2023-02-22T11:56:18;6.00;;;5.40;;
14092;SDS011;7123;49.468;10.992;2023-02-22T11:59:10;8.83;;;5.90;;
14092;SDS011;7123;49.468;10.992;2023-02-22T12:01:55;5.93;;;4.80;;
14092;SDS011;7123;49.468;10.992;2023-02-22T12:07:31;8.40;;;4.97;;
14092;SDS011;7123;49.468;10.992;2023-02-22T12:18:36;5.07;;;4.57;;
14092;SDS011;7123;49.468;10.992;2023-02-22T12:21:15;6.07;;;4.77;;
14092;SDS011;7123;49.468;10.992;2023-02-22T12:23:55;6.53;;;5.10;;
14092;SDS011;7123;49.468;10.992;2023-02-22T12:26:30;5.93;;;5.23;;
14092;SDS011;7123;49.468;10.992;2023-02-22T12:29:25;6.70;;;5.77;;
14092;SDS011;7123;49.468;10.992;2023-02-22T12:32:05;6.00;;;5.40;;
14092;SDS011;7123;49.468;10.992;2023-02-22T12:34:47;8.03;;;5.77;;
14092;SDS011;7123;49.468;10.992;2023-02-22T12:37:24;7.60;;;5.27;;
14092;SDS011;7123;49.468;10.992;2023-02-22T12:39:55;5.80;;;4.80;;
14092;SDS011;7123;49.468;10.992;2023-02-22T12:42:59;6.30;;;5.10;;
14092;SDS011;7123;49.468;10.992;2023-02-22T12:50:58;7.50;;;5.13;;
14092;SDS011;7123;49.468;10.992;2023-02-22T12:53:37;5.67;;;4.90;;
14092;SDS011;7123;49.468;10.992;2023-02-22T12:58:48;6.37;;;4.30;;
14092;SDS011;7123;49.468;10.992;2023-02-22T13:01:21;10.17;;;4.33;;
14092;SDS011;7123;49.468;10.992;2023-02-22T13:03:52;7.07;;;4.77;;
14092;SDS011;7123;49.468;10.992;2023-02-22T13:06:31;5.07;;;4.57;;
14092;SDS011;7123;49.468;10.992;2023-02-22T13:20:18;6.90;;;5.60;;
14092;SDS011;7123;49.468;10.992;2023-02-22T13:30:42;5.83;;;5.23;;
14092;SDS011;7123;49.468;10.992;2023-02-22T13:33:23;6.03;;;4.37;;
14092;SDS011;7123;49.468;10.992;2023-02-22T13:53:25;6.27;;;4.00;;
14092;SDS011;7123;49.468;10.992;2023-02-22T13:55:58;6.03;;;3.70;;
14092;SDS011;7123;49.468;10.992;2023-02-22T13:58:26;6.90;;;4.07;;
14092;SDS011;7123;49.468;10.992;2023-02-22T14:00:57;5.67;;;3.70;;
14092;SDS011;7123;49.468;10.992;2023-02-22T14:03:29;4.40;;;3.57;;
14092;SDS011;7123;49.468;10.992;2023-02-22T14:06:02;9.47;;;4.07;;
14092;SDS011;7123;49.468;10.992;2023-02-22T14:11:00;6.47;;;3.90;;
14092;SDS011;7123;49.468;10.992;2023-02-22T14:16:22;4.30;;;3.90;;
14092;SDS011;7123;49.468;10.992;2023-02-22T14:19:26;4.90;;;3.90;;
14092;SDS011;7123;49.468;10.992;2023-02-22T14:21:58;8.57;;;3.70;;
14092;SDS011;7123;49.468;10.992;2023-02-22T14:24:46;5.00;;;4.03;;
14092;SDS011;7123;49.468;10.992;2023-02-22T14:27:13;10.13;;;3.87;;
14092;SDS011;7123;49.468;10.992;2023-02-22T14:29:52;4.30;;;3.90;;
14092;SDS011;7123;49.468;10.992;2023-02-22T14:32:29;4.90;;;4.00;;
14092;SDS011;7123;49.468;10.992;2023-02-22T14:34:59;7.60;;;3.53;;
14092;SDS011;7123;49.468;10.992;2023-02-22T14:37:47;7.07;;;4.53;;
14092;SDS011;7123;49.468;10.992;2023-02-22T14:40:23;5.70;;;3.83;;
14092;SDS011;7123;49.468;10.992;2023-02-22T14:45:51;7.80;;;4.40;;
14092;SDS011;7123;49.468;10.992;2023-02-22T14:48:34;6.43;;;4.13;;
14092;SDS011;7123;49.468;10.992;2023-02-22T14:51:12;4.80;;;4.40;;
14092;SDS011;7123;49.468;10.992;2023-02-22T14:56:38;4.67;;;4.17;;
14092;SDS011;7123;49.468;10.992;2023-02-22T14:59:20;7.70;;;4.13;;
14092;SDS011;7123;49.468;10.992;2023-02-22T15:04:52;7.97;;;4.20;;
14092;SDS011;7123;49.468;10.992;2023-02-22T15:07:22;4.67;;;4.20;;
14092;SDS011;7123;49.468;10.992;2023-02-22T15:10:05;7.63;;;3.63;;
14092;SDS011;7123;49.468;10.992;2023-02-22T15:13:19;8.40;;;3.97;;
14092;SDS011;7123;49.468;10.992;2023-02-22T15:15:45;10.37;;;3.83;;
14092;SDS011;7123;49.468;10.992;2023-02-22T15:18:19;5.70;;;4.23;;
14092;SDS011;7123;49.468;10.992;2023-02-22T15:20:52;6.33;;;4.13;;
14092;SDS011;7123;49.468;10.992;2023-02-22T15:23:38;4.30;;;3.90;;
14092;SDS011;7123;49.468;10.992;2023-02-22T15:26:43;5.93;;;4.03;;
14092;SDS011;7123;49.468;10.992;2023-02-22T15:29:34;4.97;;;4.47;;
14092;SDS011;7123;49.468;10.992;2023-02-22T15:32:11;4.27;;;3.40;;
14092;SDS011;7123;49.468;10.992;2023-02-22T15:34:52;6.13;;;3.80;;
14092;SDS011;7123;49.468;10.992;2023-02-22T15:37:22;8.70;;;3.90;;
14092;SDS011;7123;49.468;10.992;2023-02-22T15:39:52;4.43;;;3.37;;
14092;SDS011;7123;49.468;10.992;2023-02-22T15:42:29;4.03;;;3.03;;
14092;SDS011;7123;49.468;10.992;2023-02-22T15:44:56;4.10;;;3.53;;
14092;SDS011;7123;49.468;10.992;2023-02-22T15:47:24;5.00;;;3.17;;
14092;SDS011;7123;49.468;10.992;2023-02-22T15:52:47;6.70;;;3.80;;
14092;SDS011;7123;49.468;10.992;2023-02-22T15:57:55;5.93;;;3.83;;
14092;SDS011;7123;49.468;10.992;2023-02-22T16:00:36;4.27;;;3.40;;
14092;SDS011;7123;49.468;10.992;2023-02-22T16:03:12;4.07;;;3.37;;
14092;SDS011;7123;49.468;10.992;2023-02-22T16:08:22;4.10;;;3.63;;
14092;SDS011;7123;49.468;10.992;2023-02-22T16:11:34;5.20;;;4.07;;
14092;SDS011;7123;49.468;10.992;2023-02-22T16:14:06;8.80;;;4.13;;
14092;SDS011;7123;49.468;10.992;2023-02-22T16:22:48;7.33;;;4.60;;
14092;SDS011;7123;49.468;10.992;2023-02-22T16:27:50;8.20;;;4.20;;
14092;SDS011;7123;49.468;10.992;2023-02-22T16:30:33;6.27;;;3.60;;
14092;SDS011;7123;49.468;10.992;2023-02-22T16:33:06;6.97;;;3.87;;
14092;SDS011;7123;49.468;10.992;2023-02-22T16:35:38;8.17;;;5.13;;
14092;SDS011;7123;49.468;10.992;2023-02-22T16:38:06;5.90;;;4.43;;
14092;SDS011;7123;49.468;10.992;2023-02-22T16:40:54;4.13;;;3.80;;
14092;SDS011;7123;49.468;10.992;2023-02-22T16:43:24;4.57;;;3.80;;
14092;SDS011;7123;49.468;10.992;2023-02-22T16:45:54;5.43;;;4.00;;
14092;SDS011;7123;49.468;10.992;2023-02-22T16:48:22;5.10;;;3.83;;
14092;SDS011;7123;49.468;10.992;2023-02-22T16:50:51;4.63;;;3.83;;
14092;SDS011;7123;49.468;10.992;2023-02-22T16:53:20;7.87;;;4.37;;
14092;SDS011;7123;49.468;10.992;2023-02-22T16:55:49;4.50;;;4.00;;
14092;SDS011;7123;49.468;10.992;2023-02-22T16:58:22;7.10;;;4.07;;
14092;SDS011;7123;49.468;10.992;2023-02-22T17:00:55;8.00;;;4.10;;
14092;SDS011;7123;49.468;10.992;2023-02-22T17:03:23;7.43;;;4.10;;
14092;SDS011;7123;49.468;10.992;2023-02-22T17:05:51;5.80;;;3.93;;
14092;SDS011;7123;49.468;10.992;2023-02-22T17:08:18;8.17;;;5.30;;
14092;SDS011;7123;49.468;10.992;2023-02-22T17:10:45;4.70;;;4.30;;
14092;SDS011;7123;49.468;10.992;2023-02-22T17:13:19;4.50;;;4.10;;
14092;SDS011;7123;49.468;10.992;2023-02-22T17:15:52;7.13;;;5.30;;
14092;SDS011;7123;49.468;10.992;2023-02-22T17:18:20;7.30;;;4.80;;
14092;SDS011;7123;49.468;10.992;2023-02-22T17:20:49;5.70;;;4.73;;
14092;SDS011;7123;49.468;10.992;2023-02-22T17:23:20;6.77;;;3.87;;
14092;SDS011;7123;49.468;10.992;2023-02-22T17:25:54;5.33;;;4.07;;
14092;SDS011;7123;49.468;10.992;2023-02-22T17:28:24;6.90;;;4.13;;
14092;SDS011;7123;49.468;10.992;2023-02-22T17:30:54;4.43;;;4.03;;
14092;SDS011;7123;49.468;10.992;2023-02-22T17:33:31;6.90;;;4.20;;
14092;SDS011;7123;49.468;10.992;2023-02-22T17:36:00;6.83;;;4.40;;
14092;SDS011;7123;49.468;10.992;2023-02-22T17:38:28;8.13;;;4.67;;
14092;SDS011;7123;49.468;10.992;2023-02-22T17:40:56;4.40;;;4.00;;
14092;SDS011;7123;49.468;10.992;2023-02-22T17:43:25;5.97;;;4.23;;